Williams, OR (97544)

2:47 PM PDT on August 22, 2014 (GMT -0700)
Bonlinda Lane | Change Station
CLOSE
Current Station
Personal Weather Station
Location: Williams, OR
Elevation: 1542 ft
Nearby Weather Stations

Elev 1542 ft 42.20 °N, 123.30 °W | Updated 6 minutes ago

Partly Cloudy
Partly Cloudy
81.3 °F
Feels Like 80 °F
N
2.0
Wind Variable Wind from NW
Gusts 7.0 mph

Today
High -- | Low -- °F
--% Chance of Precip.
Yesterday
High -- | Low -- °F
Precip. -- in
6:28 AM 8:03 PM
Waning Crescent, 6% visible
Pressure 29.95 in
Visibility 10.0 miles
Clouds Few 5000 ft
Heat Index 80 °F
Dew Point 47 °F
Humidity 30%
Rainfall 0.00 in
Snow Depth Not available.
UV 9 out of 12
Pollen 5.20 out of 12
Air Quality Not available.
Flu Activity Not available.
METAR KMFR 222053Z 27007KT 210V330 10SM FEW050 27/09 A2995

More Conditions Fewer Conditions

Pressure 29.95 in
Visibility 10.0 miles
Clouds Few 5000 ft
Heat Index 80 °F
Dew Point 47 °F
Humidity 30%
Rainfall 0.00 in
Snow Depth Not available.
UV 9 out of 12
Pollen 5.20 out of 12
Air Quality Not available.
Flu Activity Not available.
METAR KMFR 222053Z 27007KT 210V330 10SM FEW050 27/09 A2995

More Conditions Fewer Conditions

10-Day Weather Forecast

Almanac

Astronomy

Aug. 22, 2014 Rise Set
Actual Time 6:28 AM PDT 8:03 PM PDT
Civil Twilight 5:58 AM PDT 8:32 PM PDT
Nautical Twilight 5:22 AM PDT 9:08 PM PDT
Astronomical Twilight 4:44 AM PDT 9:46 PM PDT
Moon 3:54 AM PDT 6:15 PM PDT
Length of Visible Light 14h 34m
Length of Day
13h 35m
Tomorrow will be 2m 38s shorter.
Waning Crescent, 6% of the Moon is Illuminated
Today
Waning Crescent
Aug 25
New
Sep 2
First Quarter
Sep 8
Full
Sep 15
Last Quarter

Today's Extremes

State Highs State Lows

Community

WunderPhotos

Upload Photos

1,746,260 photos uploaded!

Nearby

Snow Depth

Station Depth Elevation
Fish Lake 0 in 4665 ft
Fourmile Lake 1 in 6000 ft
Cold Springs Camp 0 in 6100 ft
Sevenmile Marsh 0 in 6200 ft
Strawberry 0 in 5760 ft

Earthquake Activity

City Distance Mag. Time & Date
No recent earthquake activity has been reported nearby.
Minimum magnitude displayed is 2.5.

Coastal Water Temperatures

Place Temperature
No Stations Reporting

Nearby Weather Stations